Terminal Aerodrome Forecast
Issued by NWS Tallahassee, FL

Home | Current Version | Previous Version | Text Only | Print | Product List | Glossary On
Versions: 1 2 3 4 5 6 7 8 9 10 11 12 13
889
FTUS42 KTAE 270523
TAFTLH
TAF
KTLH 270523Z 2706/2806 10005KT P6SM FEW250
     FM271400 10007KT P6SM BKN070 BKN250
     FM280100 10003KT P6SM SCT250=

USA.gov is the U.S. government's official web portal to all federal, state and local government web resources and services.